Terminal Aerodrome Forecast
Issued by NWS

Home | Current Version | Previous Version | Graphics & Text | Print | Product List | Glossary On
Versions: 1 2 3 4 5 6 7 8 9 10 11 12 13 14 15 16 17 18 19 20
122
FTUS43 KABR 171720
TAFATY
TAF
KATY 171720Z 1718/1818 31012KT P6SM SCT040
     FM180100 26006KT P6SM FEW250
     FM180400 18005KT P6SM SCT250
     FM180700 14011KT P6SM OVC070
     FM181000 15018G27KT P6SM OVC070 WS020/19055KT
     FM181700 23014KT P6SM BKN140 WS007/24010KT=

USA.gov is the U.S. government's official web portal to all federal, state and local government web resources and services.